createdAt,value
2024-05-09T00:00:46.213Z,11.93
2024-05-09T00:03:13.914Z,11.83
2024-05-09T00:05:42.165Z,11.78
2024-05-09T00:08:10.616Z,11.76
2024-05-09T00:10:39.634Z,11.74
2024-05-09T00:13:08.631Z,11.73
2024-05-09T00:15:36.811Z,11.73
2024-05-09T00:18:05.554Z,11.74
2024-05-09T00:20:38.831Z,11.76
2024-05-09T00:23:12.677Z,11.77
2024-05-09T00:25:43.000Z,11.77
2024-05-09T00:28:11.788Z,11.71
2024-05-09T00:30:39.257Z,11.70
2024-05-09T00:33:08.192Z,11.66
2024-05-09T00:35:37.242Z,11.63
2024-05-09T00:38:05.158Z,11.57
2024-05-09T00:40:40.516Z,11.55
2024-05-09T00:43:14.478Z,11.40
2024-05-09T00:45:42.927Z,11.39
2024-05-09T00:48:12.263Z,11.30
2024-05-09T00:50:42.117Z,11.23
2024-05-09T00:53:13.439Z,11.14
2024-05-09T00:55:41.015Z,11.09
2024-05-09T00:58:09.069Z,11.11
2024-05-09T01:00:39.973Z,11.07
2024-05-09T01:03:11.274Z,11.04
2024-05-09T01:05:40.852Z,11.01
2024-05-09T01:08:09.044Z,10.98
2024-05-09T01:10:37.409Z,10.95
2024-05-09T01:13:05.788Z,10.90
2024-05-09T01:15:33.482Z,10.87
2024-05-09T01:18:12.384Z,10.84
2024-05-09T01:20:43.825Z,10.82
2024-05-09T01:23:14.663Z,10.75
2024-05-09T01:25:43.982Z,10.71
2024-05-09T01:28:11.586Z,10.68
2024-05-09T01:30:39.118Z,10.64
2024-05-09T01:33:09.050Z,10.63
2024-05-09T01:35:39.362Z,10.60
2024-05-09T01:38:08.037Z,10.56
2024-05-09T01:40:38.716Z,10.50
2024-05-09T01:43:11.533Z,10.46
2024-05-09T01:45:40.497Z,10.43
2024-05-09T01:48:08.840Z,10.40
2024-05-09T01:50:40.495Z,10.37
2024-05-09T01:53:10.889Z,10.34
2024-05-09T01:55:38.505Z,10.30
2024-05-09T01:58:06.300Z,10.28
2024-05-09T02:00:39.412Z,10.23
2024-05-09T02:03:15.924Z,10.20
2024-05-09T02:05:46.153Z,10.17
2024-05-09T02:08:15.485Z,10.15
2024-05-09T02:10:44.644Z,10.16
2024-05-09T02:13:12.477Z,10.09
2024-05-09T02:15:39.938Z,10.06
2024-05-09T02:18:08.859Z,10.06
2024-05-09T02:20:39.396Z,10.03
2024-05-09T02:23:07.425Z,10.05
2024-05-09T02:25:35.055Z,10.06
2024-05-09T02:28:02.615Z,10.03
2024-05-09T02:30:38.833Z,10.08
2024-05-09T02:33:11.072Z,10.08
2024-05-09T02:35:40.558Z,10.12
2024-05-09T02:38:09.231Z,10.13
2024-05-09T02:40:38.963Z,10.19
2024-05-09T02:43:08.264Z,10.20
2024-05-09T02:45:36.561Z,10.22
2024-05-09T02:48:04.264Z,10.22
2024-05-09T02:50:37.891Z,10.23
2024-05-09T02:53:13.811Z,10.25
2024-05-09T02:55:42.554Z,10.29
2024-05-09T02:58:10.407Z,10.26
2024-05-09T03:00:40.959Z,10.26
2024-05-09T03:03:15.246Z,10.26
2024-05-09T03:05:44.661Z,10.29
2024-05-09T03:08:12.716Z,10.30
2024-05-09T03:10:40.457Z,10.33
2024-05-09T03:13:08.926Z,10.34
2024-05-09T03:15:36.459Z,10.36
2024-05-09T03:18:04.908Z,10.39
2024-05-09T03:20:34.980Z,10.40
2024-05-09T03:23:05.074Z,10.43
2024-05-09T03:25:33.280Z,10.47
2024-05-09T03:28:00.775Z,10.49
2024-05-09T03:30:36.231Z,10.53
2024-05-09T03:33:18.003Z,10.56
2024-05-09T03:35:47.479Z,10.56
2024-05-09T03:38:15.272Z,10.61
2024-05-09T03:40:50.307Z,10.68
2024-05-09T03:43:18.597Z,10.72
2024-05-09T03:45:47.648Z,10.77
2024-05-09T03:48:15.424Z,10.82
2024-05-09T03:50:43.206Z,10.88
2024-05-09T03:53:11.668Z,10.98
2024-05-09T03:55:39.347Z,11.00
2024-05-09T03:58:09.778Z,11.07
2024-05-09T04:00:39.491Z,11.11
2024-05-09T04:03:10.470Z,11.09
2024-05-09T04:05:41.743Z,11.14
2024-05-09T04:08:10.875Z,11.15
2024-05-09T04:10:38.586Z,11.23
2024-05-09T04:13:06.037Z,11.29
2024-05-09T04:15:33.630Z,11.38
2024-05-09T04:18:01.916Z,11.42
2024-05-09T04:20:37.573Z,11.44
2024-05-09T04:23:09.136Z,11.53
2024-05-09T04:25:37.238Z,11.59
2024-05-09T04:28:05.461Z,11.63
2024-05-09T04:30:38.544Z,11.69
2024-05-09T04:33:10.895Z,11.73
2024-05-09T04:35:42.619Z,11.69
2024-05-09T04:38:10.653Z,11.74
2024-05-09T04:40:38.439Z,11.73
2024-05-09T04:43:07.807Z,11.84
2024-05-09T04:45:35.769Z,11.97
2024-05-09T04:48:03.881Z,12.08
2024-05-09T04:50:36.945Z,12.20
2024-05-09T04:53:08.511Z,12.35
2024-05-09T04:55:37.438Z,12.45
2024-05-09T04:58:05.872Z,12.60
2024-05-09T05:00:37.486Z,12.69
2024-05-09T05:03:08.488Z,12.76
2024-05-09T05:05:43.484Z,12.83
2024-05-09T05:08:17.036Z,12.90
2024-05-09T05:10:46.279Z,12.87
2024-05-09T05:13:21.231Z,12.92
2024-05-09T05:15:50.413Z,12.99
2024-05-09T05:18:18.660Z,13.08
2024-05-09T05:20:46.560Z,13.11
2024-05-09T05:23:15.597Z,13.22
2024-05-09T05:25:43.462Z,13.37
2024-05-09T05:28:11.244Z,13.42
2024-05-09T05:30:39.070Z,13.48
2024-05-09T05:33:07.095Z,13.55
2024-05-09T05:35:35.233Z,13.63
2024-05-09T05:38:03.489Z,13.66
2024-05-09T05:40:37.171Z,13.72
2024-05-09T05:43:17.392Z,13.83
2024-05-09T05:45:45.167Z,13.89
2024-05-09T05:48:13.504Z,13.91
2024-05-09T05:50:41.230Z,14.00
2024-05-09T05:53:09.670Z,14.05
2024-05-09T05:55:38.266Z,14.12
2024-05-09T05:58:05.931Z,14.23
2024-05-09T06:00:38.450Z,14.24
2024-05-09T06:03:08.734Z,14.18
2024-05-09T06:05:37.598Z,14.17
2024-05-09T06:08:05.486Z,14.07
2024-05-09T06:10:38.339Z,14.02
2024-05-09T06:13:08.284Z,14.13
2024-05-09T06:15:35.787Z,14.16
2024-05-09T06:18:06.437Z,14.28
2024-05-09T06:20:36.824Z,14.48
2024-05-09T06:23:06.988Z,14.67
2024-05-09T06:25:38.024Z,14.78
2024-05-09T06:28:06.026Z,14.91
2024-05-09T06:30:38.927Z,15.03
2024-05-09T06:33:10.786Z,15.23
2024-05-09T06:35:40.193Z,15.36
2024-05-09T06:38:11.003Z,15.51
2024-05-09T06:40:41.778Z,15.78
2024-05-09T06:43:14.752Z,16.12
2024-05-09T06:45:43.232Z,16.52
2024-05-09T06:48:10.793Z,16.88
2024-05-09T06:50:39.815Z,17.25
2024-05-09T06:53:08.760Z,17.46
2024-05-09T06:55:36.878Z,17.43
2024-05-09T06:58:06.194Z,17.52
2024-05-09T07:00:39.130Z,17.57
2024-05-09T07:03:09.975Z,17.80
2024-05-09T07:05:38.351Z,17.86
2024-05-09T07:08:06.739Z,18.07
2024-05-09T07:10:36.211Z,18.12
2024-05-09T07:13:08.608Z,17.90
2024-05-09T07:15:35.962Z,17.96
2024-05-09T07:18:20.477Z,18.24
2024-05-09T07:20:49.827Z,18.67
2024-05-09T07:23:18.218Z,19.00
2024-05-09T07:25:46.156Z,19.31
2024-05-09T07:28:17.923Z,19.52
2024-05-09T07:30:45.620Z,19.50
2024-05-09T07:33:21.331Z,19.61
2024-05-09T07:35:50.434Z,19.72
2024-05-09T07:38:17.975Z,19.69
2024-05-09T07:40:45.624Z,19.73
2024-05-09T07:43:14.734Z,19.79
2024-05-09T07:45:51.271Z,19.93
2024-05-09T07:52:37.638Z,20.14
2024-05-09T07:53:50.646Z,20.29
2024-05-09T07:56:22.767Z,20.26
2024-05-09T07:58:52.314Z,20.26
2024-05-09T08:01:21.150Z,20.34
2024-05-09T08:03:49.037Z,20.33
2024-05-09T08:06:16.560Z,20.24
2024-05-09T08:08:43.970Z,20.30
2024-05-09T08:11:11.440Z,20.54
2024-05-09T08:13:38.988Z,20.59
2024-05-09T08:16:07.219Z,20.77
2024-05-09T08:18:34.784Z,20.96
2024-05-09T08:21:02.498Z,21.23
2024-05-09T08:23:29.944Z,21.43
2024-05-09T08:25:57.358Z,21.64
2024-05-09T08:28:24.887Z,21.75
2024-05-09T08:30:52.502Z,21.47
2024-05-09T08:33:20.240Z,21.70
2024-05-09T08:35:47.811Z,22.00
2024-05-09T08:38:15.292Z,22.29
2024-05-09T08:40:43.101Z,22.70
2024-05-09T08:43:12.151Z,22.88
2024-05-09T08:45:44.016Z,22.83
2024-05-09T08:48:13.916Z,22.78
2024-05-09T08:50:42.286Z,22.60
2024-05-09T08:53:10.235Z,22.91
2024-05-09T08:55:41.588Z,22.93
2024-05-09T08:58:20.728Z,23.04
2024-05-09T09:00:49.190Z,23.08
2024-05-09T09:03:20.435Z,22.61
2024-05-09T09:06:00.765Z,22.00
2024-05-09T09:08:28.177Z,21.64
2024-05-09T09:10:57.866Z,21.54
2024-05-09T09:13:25.524Z,21.77
2024-05-09T09:15:57.763Z,22.29
2024-05-09T09:18:26.878Z,22.66
2024-05-09T09:20:54.518Z,22.71
2024-05-09T09:23:22.119Z,22.91
2024-05-09T09:25:49.531Z,23.15
2024-05-09T09:28:16.989Z,23.01
2024-05-09T09:30:44.563Z,23.04
2024-05-09T09:33:12.502Z,22.97
2024-05-09T09:35:40.239Z,22.91
2024-05-09T09:38:08.052Z,23.00
2024-05-09T09:40:43.171Z,22.97
2024-05-09T09:43:23.901Z,22.86
2024-05-09T09:45:53.431Z,22.35
2024-05-09T09:48:22.763Z,21.70
2024-05-09T09:50:52.273Z,21.29
2024-05-09T09:53:20.238Z,21.06
2024-05-09T09:55:47.543Z,20.81
2024-05-09T09:58:18.135Z,20.50
2024-05-09T10:00:46.019Z,20.38
2024-05-09T10:03:13.669Z,20.21
2024-05-09T10:05:44.255Z,19.93
2024-05-09T10:08:14.069Z,19.61
2024-05-09T10:10:41.657Z,19.41
2024-05-09T10:13:09.208Z,19.14
2024-05-09T10:15:45.804Z,18.99
2024-05-09T10:18:13.556Z,18.76
2024-05-09T10:20:44.895Z,18.39
2024-05-09T10:23:28.453Z,18.07
2024-05-09T10:26:06.335Z,17.83
2024-05-09T10:28:37.797Z,17.66
2024-05-09T10:31:13.648Z,17.56
2024-05-09T10:33:47.188Z,17.52
2024-05-09T10:36:15.153Z,17.47
2024-05-09T10:38:43.482Z,17.46
2024-05-09T10:41:11.664Z,17.38
2024-05-09T10:43:43.773Z,17.35
2024-05-09T10:46:11.818Z,17.25
2024-05-09T10:48:40.142Z,17.12
2024-05-09T10:51:07.647Z,17.00
2024-05-09T10:53:45.295Z,16.85
2024-05-09T10:56:14.348Z,16.74
2024-05-09T10:58:41.896Z,16.67
2024-05-09T11:01:10.625Z,16.63
2024-05-09T11:03:39.170Z,16.57
2024-05-09T11:06:07.299Z,16.45
2024-05-09T11:08:35.168Z,16.30
2024-05-09T11:11:04.983Z,16.05
2024-05-09T11:13:36.539Z,15.89
2024-05-09T11:16:04.675Z,15.65
2024-05-09T11:18:36.470Z,15.51
2024-05-09T11:21:14.669Z,15.43
2024-05-09T11:23:42.059Z,15.39
2024-05-09T11:26:11.166Z,15.30
2024-05-09T11:28:38.703Z,15.22
2024-05-09T11:31:08.020Z,15.13
2024-05-09T11:33:40.028Z,15.06
2024-05-09T11:36:08.187Z,14.91
2024-05-09T11:38:35.643Z,14.79
2024-05-09T11:41:03.839Z,14.69
2024-05-09T11:43:31.068Z,14.44
2024-05-09T11:45:58.820Z,14.24
2024-05-09T11:48:27.263Z,14.13
2024-05-09T11:50:55.222Z,13.99
2024-05-09T11:53:22.761Z,13.82
2024-05-09T11:55:50.429Z,13.76
2024-05-09T11:58:19.099Z,13.73
2024-05-09T12:00:47.390Z,13.72
2024-05-09T12:03:15.164Z,13.65
2024-05-09T12:05:42.789Z,13.65
2024-05-09T12:08:10.389Z,13.61
2024-05-09T12:10:38.099Z,13.58
2024-05-09T12:13:07.084Z,13.51
2024-05-09T12:15:38.064Z,13.44
2024-05-09T12:18:06.983Z,13.38
2024-05-09T12:20:38.210Z,13.25
2024-05-09T12:23:09.294Z,13.18
2024-05-09T12:25:38.248Z,13.12
2024-05-09T12:28:06.501Z,13.08
2024-05-09T12:30:38.215Z,13.04
2024-05-09T12:33:12.494Z,12.94
2024-05-09T12:35:43.372Z,12.99
2024-05-09T12:38:13.161Z,13.01
2024-05-09T12:40:40.590Z,13.01
2024-05-09T12:43:09.271Z,13.11
2024-05-09T12:45:38.105Z,13.21
2024-05-09T12:48:08.551Z,13.31
2024-05-09T12:50:36.959Z,13.42
2024-05-09T12:53:05.435Z,13.54
2024-05-09T12:55:41.404Z,13.55
2024-05-09T12:58:19.331Z,13.54
2024-05-09T13:00:47.493Z,13.62
2024-05-09T13:03:15.405Z,13.76
2024-05-09T13:05:45.345Z,13.85
2024-05-09T13:08:13.590Z,13.97
2024-05-09T13:10:41.278Z,13.99
2024-05-09T13:13:10.371Z,14.10
2024-05-09T13:15:38.100Z,14.26
2024-05-09T13:18:06.751Z,14.45
2024-05-09T13:20:35.865Z,14.63
2024-05-09T13:23:08.325Z,14.79
2024-05-09T13:25:37.846Z,14.92
2024-05-09T13:28:06.282Z,15.14
2024-05-09T13:30:39.532Z,15.34
2024-05-09T13:33:11.516Z,15.47
2024-05-09T13:35:41.985Z,15.44
2024-05-09T13:38:11.548Z,15.46
2024-05-09T13:40:39.214Z,15.44
2024-05-09T13:43:07.103Z,15.34
2024-05-09T13:45:35.399Z,15.40
2024-05-09T13:48:04.284Z,15.47
2024-05-09T13:50:35.673Z,15.49
2024-05-09T13:53:06.579Z,15.60
2024-05-09T13:55:35.598Z,15.70
2024-05-09T13:58:03.349Z,15.77
2024-05-09T14:00:42.720Z,15.82
2024-05-09T14:03:15.912Z,15.88
2024-05-09T14:05:44.007Z,15.84
2024-05-09T14:08:11.962Z,15.94
2024-05-09T14:10:44.638Z,15.85
2024-05-09T14:13:13.196Z,15.81
2024-05-09T14:15:41.162Z,15.78
2024-05-09T14:18:12.413Z,15.75
2024-05-09T14:20:41.529Z,15.75
2024-05-09T14:23:09.193Z,15.75
2024-05-09T14:25:39.766Z,15.82
2024-05-09T14:28:09.432Z,15.68
2024-05-09T14:30:38.497Z,15.61
2024-05-09T14:33:07.791Z,15.51
2024-05-09T14:35:37.846Z,15.60
2024-05-09T14:38:05.880Z,15.60
2024-05-09T14:43:04.026Z,15.78
2024-05-09T14:45:32.944Z,15.79
2024-05-09T14:48:00.703Z,15.81
2024-05-09T14:50:35.185Z,15.88
2024-05-09T14:53:06.830Z,15.88
2024-05-09T14:55:37.643Z,15.91
2024-05-09T14:58:11.984Z,15.92
2024-05-09T15:00:47.955Z,15.97
2024-05-09T15:03:19.633Z,16.01
2024-05-09T15:05:47.886Z,15.97
2024-05-09T15:08:15.397Z,16.02
2024-05-09T15:10:43.208Z,15.91
2024-05-09T15:13:13.228Z,15.82
2024-05-09T15:15:42.756Z,15.89
2024-05-09T15:18:10.316Z,15.91
2024-05-09T15:20:38.407Z,15.94
2024-05-09T15:23:06.957Z,15.88
2024-05-09T15:25:35.455Z,15.87
2024-05-09T15:28:03.387Z,15.78
2024-05-09T15:30:33.359Z,15.77
2024-05-09T15:33:06.418Z,15.74
2024-05-09T15:35:35.088Z,15.62
2024-05-09T15:38:03.589Z,15.53
2024-05-09T15:40:38.381Z,15.41
2024-05-09T15:43:09.301Z,15.27
2024-05-09T15:45:38.303Z,15.13
2024-05-09T15:48:06.429Z,15.04
2024-05-09T15:50:38.901Z,14.89
2024-05-09T15:53:10.125Z,14.72
2024-05-09T15:55:38.496Z,14.60
2024-05-09T15:58:07.125Z,14.45
2024-05-09T16:00:39.465Z,14.31
2024-05-09T16:03:10.659Z,14.14
2024-05-09T16:05:38.796Z,14.07
2024-05-09T16:08:07.181Z,14.03
2024-05-09T16:10:35.398Z,13.96
2024-05-09T16:13:03.940Z,13.90
2024-05-09T16:15:31.876Z,13.79
2024-05-09T16:18:00.019Z,13.70
2024-05-09T16:20:35.256Z,13.61
2024-05-09T16:23:08.705Z,13.48
2024-05-09T16:25:36.804Z,13.42
2024-05-09T16:28:08.626Z,13.38
2024-05-09T16:30:41.318Z,13.34
2024-05-09T16:33:11.087Z,13.27
2024-05-09T16:35:39.630Z,13.22
2024-05-09T16:38:07.448Z,13.17
2024-05-09T16:40:39.165Z,13.15
2024-05-09T16:43:10.013Z,13.12
2024-05-09T16:45:38.301Z,13.12
2024-05-09T16:48:06.904Z,13.12
2024-05-09T16:50:35.868Z,13.10
2024-05-09T16:53:05.641Z,13.10
2024-05-09T16:55:34.375Z,13.03
2024-05-09T16:58:02.751Z,12.97
2024-05-09T17:00:38.872Z,12.89
2024-05-09T17:03:10.893Z,12.83
2024-05-09T17:05:39.583Z,12.79
2024-05-09T17:08:07.730Z,12.73
2024-05-09T17:10:36.609Z,12.75
2024-05-09T17:13:06.184Z,12.77
2024-05-09T17:15:35.672Z,12.75
2024-05-09T17:18:04.186Z,12.72
2024-05-09T17:20:35.154Z,12.73
2024-05-09T17:23:05.968Z,12.70
2024-05-09T17:25:34.615Z,12.72
2024-05-09T17:28:07.893Z,12.70
2024-05-09T17:30:38.371Z,12.69
2024-05-09T17:33:08.792Z,12.69
2024-05-09T17:35:37.399Z,12.69
2024-05-09T17:38:06.343Z,12.67
2024-05-09T17:40:36.588Z,12.66
2024-05-09T17:43:07.671Z,12.67
2024-05-09T17:45:41.061Z,12.66
2024-05-09T17:48:10.643Z,12.69
2024-05-09T17:50:39.594Z,12.70
2024-05-09T17:53:07.614Z,12.72
2024-05-09T17:55:35.765Z,12.69
2024-05-09T17:58:04.448Z,12.66
2024-05-09T18:00:38.161Z,12.60
2024-05-09T18:03:11.798Z,12.57
2024-05-09T18:05:40.624Z,12.55
2024-05-09T18:08:08.891Z,12.52
2024-05-09T18:10:39.268Z,12.53
2024-05-09T18:13:09.056Z,12.49
2024-05-09T18:15:39.202Z,12.48
2024-05-09T18:18:07.576Z,12.45
2024-05-09T18:20:42.405Z,12.42
2024-05-09T18:23:14.356Z,12.41
2024-05-09T18:25:43.078Z,12.44
2024-05-09T18:28:10.954Z,12.45
2024-05-09T18:30:38.511Z,12.45
2024-05-09T18:33:07.951Z,12.49
2024-05-09T18:35:36.731Z,12.50
2024-05-09T18:38:05.788Z,12.52
2024-05-09T18:40:36.611Z,12.53
2024-05-09T18:43:07.830Z,12.52
2024-05-09T18:45:38.094Z,12.48
2024-05-09T18:48:07.333Z,12.48
2024-05-09T18:50:38.790Z,12.44
2024-05-09T18:53:08.469Z,12.44
2024-05-09T18:55:36.136Z,12.46
2024-05-09T18:58:05.021Z,12.46
2024-05-09T19:00:36.587Z,12.49
2024-05-09T19:03:12.429Z,12.46
2024-05-09T19:05:43.151Z,12.45
2024-05-09T19:08:11.828Z,12.46
2024-05-09T19:10:39.627Z,12.45
2024-05-09T19:13:11.737Z,12.39
2024-05-09T19:15:41.532Z,12.38
2024-05-09T19:18:09.876Z,12.35
2024-05-09T19:20:38.056Z,12.34
2024-05-09T19:23:06.653Z,12.29
2024-05-09T19:25:35.364Z,12.28
2024-05-09T19:28:03.804Z,12.20
2024-05-09T19:30:38.699Z,12.22
2024-05-09T19:33:10.243Z,12.24
2024-05-09T19:35:38.862Z,12.25
2024-05-09T19:38:06.537Z,12.24
2024-05-09T19:40:35.456Z,12.26
2024-05-09T19:43:05.291Z,12.26
2024-05-09T19:45:35.064Z,12.22
2024-05-09T19:48:04.092Z,12.21
2024-05-09T19:50:39.886Z,12.22
2024-05-09T19:53:11.658Z,12.20
2024-05-09T19:55:39.240Z,12.21
2024-05-09T19:58:07.730Z,12.17
2024-05-09T20:00:38.158Z,12.08
2024-05-09T20:03:08.266Z,12.10
2024-05-09T20:05:36.982Z,12.07
2024-05-09T20:08:05.296Z,12.04
2024-05-09T20:10:35.084Z,12.02
2024-05-09T20:13:04.838Z,11.99
2024-05-09T20:15:34.942Z,11.98
2024-05-09T20:18:02.882Z,11.94
2024-05-09T20:20:37.446Z,11.91
2024-05-09T20:23:09.545Z,11.87
2024-05-09T20:25:37.199Z,11.81
2024-05-09T20:28:06.614Z,11.73
2024-05-09T20:30:35.472Z,11.70
2024-05-09T20:33:05.026Z,11.71
2024-05-09T20:35:33.911Z,11.70
2024-05-09T20:38:02.516Z,11.60
2024-05-09T20:40:34.612Z,11.57
2024-05-09T20:43:05.694Z,11.55
2024-05-09T20:45:34.171Z,11.60
2024-05-09T20:48:02.102Z,11.63
2024-05-09T20:50:37.214Z,11.65
2024-05-09T20:53:09.800Z,11.69
2024-05-09T20:55:37.509Z,11.63
2024-05-09T20:58:05.455Z,11.66
2024-05-09T21:00:40.209Z,11.69
2024-05-09T21:03:11.842Z,11.74
2024-05-09T21:05:40.444Z,11.74
2024-05-09T21:08:08.394Z,11.71
2024-05-09T21:10:37.118Z,11.71
2024-05-09T21:13:06.099Z,11.73
2024-05-09T21:15:34.475Z,11.74
2024-05-09T21:18:02.208Z,11.74
2024-05-09T21:20:32.811Z,11.70
2024-05-09T21:23:02.003Z,11.69
2024-05-09T21:25:30.106Z,11.70
2024-05-09T21:27:58.022Z,11.70
2024-05-09T21:32:55.894Z,11.66
2024-05-09T21:35:23.469Z,11.69
2024-05-09T21:37:50.827Z,11.65
2024-05-09T21:40:27.085Z,11.59
2024-05-09T21:43:01.445Z,11.62
2024-05-09T21:45:29.023Z,11.57
2024-05-09T21:47:56.613Z,11.53
2024-05-09T21:50:31.892Z,11.47
2024-05-09T21:53:06.781Z,11.40
2024-05-09T21:55:34.631Z,11.38
2024-05-09T21:58:02.476Z,11.30
2024-05-09T22:00:36.119Z,11.30
2024-05-09T22:03:09.468Z,11.29
2024-05-09T22:05:39.270Z,11.29
2024-05-09T22:08:07.334Z,11.29
2024-05-09T22:10:36.491Z,11.28
2024-05-09T22:13:07.585Z,11.30
2024-05-09T22:15:36.852Z,11.29
2024-05-09T22:18:05.821Z,11.32
2024-05-09T22:20:37.542Z,11.30
2024-05-09T22:23:07.257Z,11.28
2024-05-09T22:25:34.872Z,11.33
2024-05-09T22:28:03.036Z,11.38
2024-05-09T22:30:36.357Z,11.39
2024-05-09T22:33:08.289Z,11.35
2024-05-09T22:35:36.601Z,11.39
2024-05-09T22:38:04.317Z,11.40
2024-05-09T22:40:42.156Z,11.38
2024-05-09T22:43:18.034Z,11.32
2024-05-09T22:45:45.808Z,11.25
2024-05-09T22:48:13.462Z,11.23
2024-05-09T22:50:41.474Z,11.20
2024-05-09T22:53:08.870Z,11.19
2024-05-09T22:55:36.392Z,11.19
2024-05-09T22:58:03.963Z,11.22
2024-05-09T23:00:32.854Z,11.25
2024-05-09T23:03:01.732Z,11.29
2024-05-09T23:05:29.920Z,11.30
2024-05-09T23:07:57.406Z,11.30
2024-05-09T23:10:32.125Z,11.26
2024-05-09T23:13:04.122Z,11.20
2024-05-09T23:15:31.779Z,11.20
2024-05-09T23:17:59.501Z,11.19
2024-05-09T23:20:35.978Z,11.20
2024-05-09T23:23:07.166Z,11.18
2024-05-09T23:25:35.100Z,11.12
2024-05-09T23:28:02.832Z,11.09
2024-05-09T23:30:37.546Z,11.05
2024-05-09T23:33:08.455Z,11.02
2024-05-09T23:35:36.412Z,11.05
2024-05-09T23:38:04.268Z,11.12
2024-05-09T23:40:38.621Z,11.09
2024-05-09T23:43:09.465Z,11.04
2024-05-09T23:45:37.424Z,11.04
2024-05-09T23:48:05.643Z,11.07
2024-05-09T23:50:36.804Z,11.11
2024-05-09T23:53:07.948Z,11.11
2024-05-09T23:55:36.793Z,11.14
2024-05-09T23:58:04.462Z,11.05
